sensor_id;sensor_type;location;lat;lon;timestamp;P1;durP1;ratioP1;P2;durP2;ratioP2
4547;SDS011;2286;51.570;7.090;2023-07-22T00:02:07;8.20;;;7.37;;
4547;SDS011;2286;51.570;7.090;2023-07-22T00:04:34;8.23;;;7.47;;
4547;SDS011;2286;51.570;7.090;2023-07-22T00:07:01;8.70;;;7.70;;
4547;SDS011;2286;51.570;7.090;2023-07-22T00:09:29;8.60;;;7.33;;
4547;SDS011;2286;51.570;7.090;2023-07-22T00:11:59;8.93;;;7.80;;
4547;SDS011;2286;51.570;7.090;2023-07-22T00:14:26;10.20;;;7.77;;
4547;SDS011;2286;51.570;7.090;2023-07-22T00:16:53;8.40;;;7.57;;
4547;SDS011;2286;51.570;7.090;2023-07-22T00:19:20;9.20;;;8.30;;
4547;SDS011;2286;51.570;7.090;2023-07-22T00:21:48;9.00;;;8.30;;
4547;SDS011;2286;51.570;7.090;2023-07-22T00:24:17;10.30;;;9.30;;
4547;SDS011;2286;51.570;7.090;2023-07-22T00:26:45;9.07;;;8.27;;
4547;SDS011;2286;51.570;7.090;2023-07-22T00:29:12;10.03;;;7.90;;
4547;SDS011;2286;51.570;7.090;2023-07-22T00:31:39;13.27;;;8.93;;
4547;SDS011;2286;51.570;7.090;2023-07-22T00:34:06;9.43;;;8.37;;
4547;SDS011;2286;51.570;7.090;2023-07-22T00:36:34;9.77;;;8.67;;
4547;SDS011;2286;51.570;7.090;2023-07-22T00:39:00;10.10;;;8.77;;
4547;SDS011;2286;51.570;7.090;2023-07-22T00:41:27;10.40;;;9.33;;
4547;SDS011;2286;51.570;7.090;2023-07-22T00:43:56;10.60;;;8.40;;
4547;SDS011;2286;51.570;7.090;2023-07-22T00:46:23;10.10;;;9.20;;
4547;SDS011;2286;51.570;7.090;2023-07-22T00:48:50;9.50;;;8.70;;
4547;SDS011;2286;51.570;7.090;2023-07-22T00:51:18;11.33;;;9.23;;
4547;SDS011;2286;51.570;7.090;2023-07-22T00:53:47;9.80;;;8.87;;
4547;SDS011;2286;51.570;7.090;2023-07-22T00:56:14;9.27;;;8.37;;
4547;SDS011;2286;51.570;7.090;2023-07-22T00:58:41;12.83;;;8.50;;
4547;SDS011;2286;51.570;7.090;2023-07-22T01:01:09;10.17;;;9.17;;
4547;SDS011;2286;51.570;7.090;2023-07-22T01:03:37;9.73;;;8.83;;
4547;SDS011;2286;51.570;7.090;2023-07-22T01:06:04;10.03;;;9.03;;
4547;SDS011;2286;51.570;7.090;2023-07-22T01:08:31;10.30;;;9.30;;
4547;SDS011;2286;51.570;7.090;2023-07-22T01:10:58;10.00;;;9.10;;
4547;SDS011;2286;51.570;7.090;2023-07-22T01:13:25;9.73;;;8.80;;
4547;SDS011;2286;51.570;7.090;2023-07-22T01:15:52;10.23;;;9.23;;
4547;SDS011;2286;51.570;7.090;2023-07-22T01:18:21;10.10;;;9.10;;
4547;SDS011;2286;51.570;7.090;2023-07-22T01:20:48;8.87;;;7.97;;
4547;SDS011;2286;51.570;7.090;2023-07-22T01:23:16;9.87;;;8.97;;
4547;SDS011;2286;51.570;7.090;2023-07-22T01:25:43;10.07;;;9.17;;
4547;SDS011;2286;51.570;7.090;2023-07-22T01:28:11;9.27;;;8.30;;
4547;SDS011;2286;51.570;7.090;2023-07-22T01:30:38;9.50;;;8.60;;
4547;SDS011;2286;51.570;7.090;2023-07-22T01:33:05;9.87;;;8.87;;
4547;SDS011;2286;51.570;7.090;2023-07-22T01:35:32;9.80;;;8.90;;
4547;SDS011;2286;51.570;7.090;2023-07-22T01:37:59;10.63;;;9.63;;
4547;SDS011;2286;51.570;7.090;2023-07-22T01:40:27;9.73;;;8.73;;
4547;SDS011;2286;51.570;7.090;2023-07-22T01:42:54;8.87;;;8.10;;
4547;SDS011;2286;51.570;7.090;2023-07-22T01:45:21;10.73;;;9.33;;
4547;SDS011;2286;51.570;7.090;2023-07-22T01:47:48;9.63;;;8.73;;
4547;SDS011;2286;51.570;7.090;2023-07-22T01:50:15;10.67;;;8.77;;
4547;SDS011;2286;51.570;7.090;2023-07-22T01:52:43;10.40;;;8.57;;
4547;SDS011;2286;51.570;7.090;2023-07-22T01:55:11;10.00;;;9.07;;
4547;SDS011;2286;51.570;7.090;2023-07-22T01:57:39;11.90;;;8.70;;
4547;SDS011;2286;51.570;7.090;2023-07-22T02:00:08;10.20;;;8.50;;
4547;SDS011;2286;51.570;7.090;2023-07-22T02:02:37;11.33;;;8.50;;
4547;SDS011;2286;51.570;7.090;2023-07-22T02:05:05;9.10;;;8.20;;
4547;SDS011;2286;51.570;7.090;2023-07-22T02:07:32;9.90;;;8.33;;
4547;SDS011;2286;51.570;7.090;2023-07-22T02:09:59;9.47;;;8.67;;
4547;SDS011;2286;51.570;7.090;2023-07-22T02:12:26;10.80;;;8.20;;
4547;SDS011;2286;51.570;7.090;2023-07-22T02:14:54;8.67;;;7.80;;
4547;SDS011;2286;51.570;7.090;2023-07-22T02:17:21;9.17;;;8.20;;
4547;SDS011;2286;51.570;7.090;2023-07-22T02:19:48;9.97;;;8.90;;
4547;SDS011;2286;51.570;7.090;2023-07-22T02:22:15;9.03;;;8.23;;
4547;SDS011;2286;51.570;7.090;2023-07-22T02:24:42;9.40;;;8.40;;
4547;SDS011;2286;51.570;7.090;2023-07-22T02:27:10;11.87;;;8.93;;
4547;SDS011;2286;51.570;7.090;2023-07-22T02:29:36;10.77;;;8.57;;
4547;SDS011;2286;51.570;7.090;2023-07-22T02:32:05;14.20;;;8.50;;
4547;SDS011;2286;51.570;7.090;2023-07-22T02:34:33;9.33;;;8.53;;
4547;SDS011;2286;51.570;7.090;2023-07-22T02:37:00;10.87;;;8.13;;
4547;SDS011;2286;51.570;7.090;2023-07-22T02:39:27;9.37;;;8.20;;
4547;SDS011;2286;51.570;7.090;2023-07-22T02:41:54;9.23;;;8.33;;
4547;SDS011;2286;51.570;7.090;2023-07-22T02:44:21;9.23;;;7.67;;
4547;SDS011;2286;51.570;7.090;2023-07-22T02:46:48;13.00;;;8.73;;
4547;SDS011;2286;51.570;7.090;2023-07-22T02:49:16;9.20;;;8.30;;
4547;SDS011;2286;51.570;7.090;2023-07-22T02:51:43;8.83;;;8.00;;
4547;SDS011;2286;51.570;7.090;2023-07-22T02:54:10;10.03;;;7.60;;
4547;SDS011;2286;51.570;7.090;2023-07-22T02:56:37;9.47;;;8.57;;
4547;SDS011;2286;51.570;7.090;2023-07-22T02:59:04;9.20;;;8.33;;
4547;SDS011;2286;51.570;7.090;2023-07-22T03:01:31;8.80;;;7.97;;
4547;SDS011;2286;51.570;7.090;2023-07-22T03:03:58;9.33;;;7.63;;
4547;SDS011;2286;51.570;7.090;2023-07-22T03:06:26;9.70;;;8.70;;
4547;SDS011;2286;51.570;7.090;2023-07-22T03:08:54;9.83;;;8.83;;
4547;SDS011;2286;51.570;7.090;2023-07-22T03:11:22;9.30;;;8.50;;
4547;SDS011;2286;51.570;7.090;2023-07-22T03:13:50;8.90;;;7.63;;
4547;SDS011;2286;51.570;7.090;2023-07-22T03:16:17;8.20;;;7.50;;
4547;SDS011;2286;51.570;7.090;2023-07-22T03:18:44;8.43;;;7.40;;
4547;SDS011;2286;51.570;7.090;2023-07-22T03:21:11;8.70;;;7.97;;
4547;SDS011;2286;51.570;7.090;2023-07-22T03:23:39;8.40;;;7.50;;
4547;SDS011;2286;51.570;7.090;2023-07-22T03:26:06;9.10;;;8.20;;
4547;SDS011;2286;51.570;7.090;2023-07-22T03:28:33;9.73;;;8.17;;
4547;SDS011;2286;51.570;7.090;2023-07-22T03:31:00;9.17;;;8.27;;
4547;SDS011;2286;51.570;7.090;2023-07-22T03:33:27;9.00;;;7.87;;
4547;SDS011;2286;51.570;7.090;2023-07-22T03:35:54;10.50;;;7.70;;
4547;SDS011;2286;51.570;7.090;2023-07-22T03:38:21;12.50;;;7.80;;
4547;SDS011;2286;51.570;7.090;2023-07-22T03:40:49;7.40;;;6.80;;
4547;SDS011;2286;51.570;7.090;2023-07-22T03:43:18;9.73;;;7.57;;
4547;SDS011;2286;51.570;7.090;2023-07-22T03:45:44;10.07;;;8.43;;
4547;SDS011;2286;51.570;7.090;2023-07-22T03:48:11;10.10;;;7.43;;
4547;SDS011;2286;51.570;7.090;2023-07-22T03:50:38;7.90;;;7.10;;
4547;SDS011;2286;51.570;7.090;2023-07-22T03:53:05;8.50;;;7.50;;
4547;SDS011;2286;51.570;7.090;2023-07-22T03:55:32;8.93;;;8.07;;
4547;SDS011;2286;51.570;7.090;2023-07-22T03:58:00;8.93;;;7.67;;
4547;SDS011;2286;51.570;7.090;2023-07-22T04:00:27;11.57;;;7.47;;
4547;SDS011;2286;51.570;7.090;2023-07-22T04:02:54;8.23;;;7.43;;
4547;SDS011;2286;51.570;7.090;2023-07-22T04:05:21;7.90;;;6.97;;
4547;SDS011;2286;51.570;7.090;2023-07-22T04:07:48;9.50;;;8.17;;
4547;SDS011;2286;51.570;7.090;2023-07-22T04:10:15;11.53;;;7.17;;
4547;SDS011;2286;51.570;7.090;2023-07-22T04:12:42;7.93;;;7.10;;
4547;SDS011;2286;51.570;7.090;2023-07-22T04:15:10;9.23;;;6.93;;
4547;SDS011;2286;51.570;7.090;2023-07-22T04:17:38;8.07;;;7.30;;
4547;SDS011;2286;51.570;7.090;2023-07-22T04:20:06;9.67;;;7.33;;
4547;SDS011;2286;51.570;7.090;2023-07-22T04:22:34;9.53;;;7.47;;
4547;SDS011;2286;51.570;7.090;2023-07-22T04:25:01;9.30;;;7.20;;
4547;SDS011;2286;51.570;7.090;2023-07-22T04:27:28;9.73;;;7.50;;
4547;SDS011;2286;51.570;7.090;2023-07-22T04:29:54;9.43;;;7.67;;
4547;SDS011;2286;51.570;7.090;2023-07-22T04:32:23;11.73;;;7.57;;
4547;SDS011;2286;51.570;7.090;2023-07-22T04:34:50;8.27;;;7.00;;
4547;SDS011;2286;51.570;7.090;2023-07-22T04:37:17;10.73;;;7.67;;
4547;SDS011;2286;51.570;7.090;2023-07-22T04:39:46;9.73;;;7.60;;
4547;SDS011;2286;51.570;7.090;2023-07-22T04:42:14;9.10;;;8.13;;
4547;SDS011;2286;51.570;7.090;2023-07-22T04:44:41;9.30;;;7.70;;
4547;SDS011;2286;51.570;7.090;2023-07-22T04:47:09;11.87;;;8.60;;
4547;SDS011;2286;51.570;7.090;2023-07-22T04:49:38;8.90;;;7.87;;
4547;SDS011;2286;51.570;7.090;2023-07-22T04:52:06;8.07;;;7.37;;
4547;SDS011;2286;51.570;7.090;2023-07-22T04:54:33;9.60;;;7.37;;
4547;SDS011;2286;51.570;7.090;2023-07-22T04:57:00;9.20;;;8.07;;
4547;SDS011;2286;51.570;7.090;2023-07-22T04:59:28;9.27;;;8.23;;
4547;SDS011;2286;51.570;7.090;2023-07-22T05:01:55;9.90;;;8.13;;
4547;SDS011;2286;51.570;7.090;2023-07-22T05:04:21;11.17;;;8.23;;
4547;SDS011;2286;51.570;7.090;2023-07-22T05:06:50;9.03;;;7.97;;
4547;SDS011;2286;51.570;7.090;2023-07-22T05:09:17;9.10;;;8.17;;
4547;SDS011;2286;51.570;7.090;2023-07-22T05:11:44;9.23;;;8.33;;
4547;SDS011;2286;51.570;7.090;2023-07-22T05:14:11;12.40;;;8.17;;
4547;SDS011;2286;51.570;7.090;2023-07-22T05:16:38;7.97;;;7.27;;
4547;SDS011;2286;51.570;7.090;2023-07-22T05:19:05;14.80;;;8.63;;
4547;SDS011;2286;51.570;7.090;2023-07-22T05:21:33;9.20;;;8.20;;
4547;SDS011;2286;51.570;7.090;2023-07-22T05:24:01;9.10;;;8.23;;
4547;SDS011;2286;51.570;7.090;2023-07-22T05:26:28;9.90;;;8.67;;
4547;SDS011;2286;51.570;7.090;2023-07-22T05:28:56;9.57;;;8.57;;
4547;SDS011;2286;51.570;7.090;2023-07-22T05:31:23;9.07;;;8.17;;
4547;SDS011;2286;51.570;7.090;2023-07-22T05:33:50;9.63;;;8.53;;
4547;SDS011;2286;51.570;7.090;2023-07-22T05:36:16;9.83;;;7.87;;
4547;SDS011;2286;51.570;7.090;2023-07-22T05:38:44;10.17;;;8.00;;
4547;SDS011;2286;51.570;7.090;2023-07-22T05:41:12;8.90;;;7.30;;
4547;SDS011;2286;51.570;7.090;2023-07-22T05:43:39;12.13;;;7.63;;
4547;SDS011;2286;51.570;7.090;2023-07-22T05:46:06;9.67;;;8.13;;
4547;SDS011;2286;51.570;7.090;2023-07-22T05:48:33;8.00;;;7.10;;
4547;SDS011;2286;51.570;7.090;2023-07-22T05:50:59;9.40;;;7.43;;
4547;SDS011;2286;51.570;7.090;2023-07-22T05:53:27;8.13;;;6.97;;
4547;SDS011;2286;51.570;7.090;2023-07-22T05:55:54;7.60;;;6.80;;
4547;SDS011;2286;51.570;7.090;2023-07-22T05:58:22;9.53;;;7.60;;
4547;SDS011;2286;51.570;7.090;2023-07-22T06:00:49;8.10;;;6.67;;
4547;SDS011;2286;51.570;7.090;2023-07-22T06:03:17;7.63;;;6.87;;
4547;SDS011;2286;51.570;7.090;2023-07-22T06:05:44;7.53;;;6.90;;
4547;SDS011;2286;51.570;7.090;2023-07-22T06:08:11;9.03;;;7.43;;
4547;SDS011;2286;51.570;7.090;2023-07-22T06:10:39;8.07;;;7.27;;
4547;SDS011;2286;51.570;7.090;2023-07-22T06:13:06;8.53;;;7.70;;
4547;SDS011;2286;51.570;7.090;2023-07-22T06:15:35;8.13;;;7.43;;
4547;SDS011;2286;51.570;7.090;2023-07-22T06:18:02;8.07;;;7.37;;
4547;SDS011;2286;51.570;7.090;2023-07-22T06:20:32;9.40;;;7.13;;
4547;SDS011;2286;51.570;7.090;2023-07-22T06:23:00;9.73;;;7.27;;
4547;SDS011;2286;51.570;7.090;2023-07-22T06:25:27;8.97;;;8.07;;
4547;SDS011;2286;51.570;7.090;2023-07-22T06:27:54;12.83;;;8.27;;
4547;SDS011;2286;51.570;7.090;2023-07-22T06:30:21;9.03;;;8.00;;
4547;SDS011;2286;51.570;7.090;2023-07-22T06:32:49;8.80;;;8.00;;
4547;SDS011;2286;51.570;7.090;2023-07-22T06:35:16;10.10;;;7.27;;
4547;SDS011;2286;51.570;7.090;2023-07-22T06:37:43;10.50;;;9.40;;
4547;SDS011;2286;51.570;7.090;2023-07-22T06:40:10;9.93;;;7.77;;
4547;SDS011;2286;51.570;7.090;2023-07-22T06:42:37;10.80;;;9.70;;
4547;SDS011;2286;51.570;7.090;2023-07-22T06:45:05;9.33;;;8.43;;
4547;SDS011;2286;51.570;7.090;2023-07-22T06:47:32;9.60;;;8.70;;
4547;SDS011;2286;51.570;7.090;2023-07-22T06:50:02;21.30;;;10.33;;
4547;SDS011;2286;51.570;7.090;2023-07-22T06:52:29;10.00;;;7.90;;
4547;SDS011;2286;51.570;7.090;2023-07-22T06:54:56;11.40;;;9.50;;
4547;SDS011;2286;51.570;7.090;2023-07-22T06:57:23;10.63;;;8.60;;
4547;SDS011;2286;51.570;7.090;2023-07-22T06:59:53;10.30;;;8.80;;
4547;SDS011;2286;51.570;7.090;2023-07-22T07:02:20;10.67;;;9.57;;
4547;SDS011;2286;51.570;7.090;2023-07-22T07:04:47;8.83;;;7.73;;
4547;SDS011;2286;51.570;7.090;2023-07-22T07:07:16;13.40;;;9.17;;
4547;SDS011;2286;51.570;7.090;2023-07-22T07:09:43;9.67;;;8.63;;
4547;SDS011;2286;51.570;7.090;2023-07-22T07:12:10;11.70;;;9.57;;
4547;SDS011;2286;51.570;7.090;2023-07-22T07:14:37;11.10;;;8.30;;
4547;SDS011;2286;51.570;7.090;2023-07-22T07:17:04;10.40;;;7.90;;
4547;SDS011;2286;51.570;7.090;2023-07-22T07:19:31;8.70;;;7.80;;
4547;SDS011;2286;51.570;7.090;2023-07-22T07:21:58;10.43;;;9.20;;
4547;SDS011;2286;51.570;7.090;2023-07-22T07:24:26;16.27;;;8.70;;
4547;SDS011;2286;51.570;7.090;2023-07-22T07:26:53;10.90;;;8.60;;
4547;SDS011;2286;51.570;7.090;2023-07-22T07:29:20;9.20;;;7.60;;
4547;SDS011;2286;51.570;7.090;2023-07-22T07:31:47;8.50;;;7.70;;
4547;SDS011;2286;51.570;7.090;2023-07-22T07:34:14;11.83;;;8.20;;
4547;SDS011;2286;51.570;7.090;2023-07-22T07:36:41;11.20;;;8.33;;
4547;SDS011;2286;51.570;7.090;2023-07-22T07:39:08;8.80;;;7.90;;
4547;SDS011;2286;51.570;7.090;2023-07-22T07:41:36;11.90;;;8.37;;
4547;SDS011;2286;51.570;7.090;2023-07-22T07:44:04;7.90;;;7.10;;
4547;SDS011;2286;51.570;7.090;2023-07-22T07:46:31;8.03;;;7.13;;
4547;SDS011;2286;51.570;7.090;2023-07-22T07:48:59;8.33;;;7.53;;
4547;SDS011;2286;51.570;7.090;2023-07-22T07:51:28;8.30;;;7.50;;
4547;SDS011;2286;51.570;7.090;2023-07-22T07:53:56;11.20;;;7.97;;
4547;SDS011;2286;51.570;7.090;2023-07-22T07:56:25;7.83;;;7.03;;
4547;SDS011;2286;51.570;7.090;2023-07-22T07:58:53;8.83;;;6.80;;
4547;SDS011;2286;51.570;7.090;2023-07-22T08:01:20;10.33;;;7.30;;
4547;SDS011;2286;51.570;7.090;2023-07-22T08:03:48;7.57;;;6.87;;
4547;SDS011;2286;51.570;7.090;2023-07-22T08:06:15;10.23;;;6.93;;
4547;SDS011;2286;51.570;7.090;2023-07-22T08:08:42;8.80;;;6.60;;
4547;SDS011;2286;51.570;7.090;2023-07-22T08:11:11;10.63;;;6.93;;
4547;SDS011;2286;51.570;7.090;2023-07-22T08:13:39;8.90;;;7.50;;
4547;SDS011;2286;51.570;7.090;2023-07-22T08:16:09;8.83;;;7.20;;
4547;SDS011;2286;51.570;7.090;2023-07-22T08:18:37;8.03;;;7.23;;
4547;SDS011;2286;51.570;7.090;2023-07-22T08:21:04;7.90;;;5.97;;
4547;SDS011;2286;51.570;7.090;2023-07-22T08:23:33;7.97;;;7.20;;
4547;SDS011;2286;51.570;7.090;2023-07-22T08:26:01;9.10;;;8.23;;
4547;SDS011;2286;51.570;7.090;2023-07-22T08:28:29;8.73;;;7.63;;
4547;SDS011;2286;51.570;7.090;2023-07-22T08:30:56;7.40;;;6.70;;
4547;SDS011;2286;51.570;7.090;2023-07-22T08:33:27;7.50;;;6.77;;
4547;SDS011;2286;51.570;7.090;2023-07-22T08:35:54;7.80;;;7.13;;
4547;SDS011;2286;51.570;7.090;2023-07-22T08:38:21;8.00;;;7.30;;
4547;SDS011;2286;51.570;7.090;2023-07-22T08:40:48;9.60;;;7.27;;
4547;SDS011;2286;51.570;7.090;2023-07-22T08:43:18;8.17;;;7.37;;
4547;SDS011;2286;51.570;7.090;2023-07-22T08:45:46;7.63;;;6.83;;
4547;SDS011;2286;51.570;7.090;2023-07-22T08:48:15;7.90;;;7.20;;
4547;SDS011;2286;51.570;7.090;2023-07-22T08:50:45;7.53;;;6.80;;
4547;SDS011;2286;51.570;7.090;2023-07-22T08:53:16;8.50;;;7.70;;
4547;SDS011;2286;51.570;7.090;2023-07-22T08:55:44;7.07;;;6.20;;
4547;SDS011;2286;51.570;7.090;2023-07-22T08:58:13;7.63;;;6.20;;
4547;SDS011;2286;51.570;7.090;2023-07-22T09:00:40;6.33;;;5.77;;
4547;SDS011;2286;51.570;7.090;2023-07-22T09:03:08;7.00;;;6.00;;
4547;SDS011;2286;51.570;7.090;2023-07-22T09:05:35;5.60;;;5.10;;
4547;SDS011;2286;51.570;7.090;2023-07-22T09:08:06;8.90;;;5.80;;
4547;SDS011;2286;51.570;7.090;2023-07-22T09:10:34;5.40;;;4.90;;
4547;SDS011;2286;51.570;7.090;2023-07-22T09:13:02;6.10;;;5.60;;
4547;SDS011;2286;51.570;7.090;2023-07-22T09:15:29;6.13;;;5.53;;
4547;SDS011;2286;51.570;7.090;2023-07-22T09:18:00;5.70;;;5.13;;
4547;SDS011;2286;51.570;7.090;2023-07-22T09:20:28;7.30;;;5.80;;
4547;SDS011;2286;51.570;7.090;2023-07-22T09:22:55;6.37;;;5.70;;
4547;SDS011;2286;51.570;7.090;2023-07-22T09:25:24;6.20;;;5.60;;
4547;SDS011;2286;51.570;7.090;2023-07-22T09:27:53;5.60;;;5.07;;
4547;SDS011;2286;51.570;7.090;2023-07-22T09:30:21;5.97;;;5.37;;
4547;SDS011;2286;51.570;7.090;2023-07-22T09:32:50;5.80;;;5.30;;
4547;SDS011;2286;51.570;7.090;2023-07-22T09:35:18;5.67;;;5.03;;
4547;SDS011;2286;51.570;7.090;2023-07-22T09:37:46;6.10;;;5.30;;
4547;SDS011;2286;51.570;7.090;2023-07-22T09:40:13;6.60;;;5.93;;
4547;SDS011;2286;51.570;7.090;2023-07-22T09:42:44;8.17;;;6.00;;
4547;SDS011;2286;51.570;7.090;2023-07-22T09:45:12;7.10;;;6.00;;
4547;SDS011;2286;51.570;7.090;2023-07-22T09:47:39;6.80;;;6.20;;
4547;SDS011;2286;51.570;7.090;2023-07-22T09:50:10;6.67;;;6.17;;
4547;SDS011;2286;51.570;7.090;2023-07-22T09:52:41;7.03;;;6.33;;
4547;SDS011;2286;51.570;7.090;2023-07-22T09:55:12;7.83;;;6.17;;
4547;SDS011;2286;51.570;7.090;2023-07-22T09:57:42;9.47;;;7.33;;
4547;SDS011;2286;51.570;7.090;2023-07-22T10:00:12;7.07;;;6.37;;
4547;SDS011;2286;51.570;7.090;2023-07-22T10:02:41;6.93;;;5.90;;
4547;SDS011;2286;51.570;7.090;2023-07-22T10:05:12;6.47;;;5.23;;
4547;SDS011;2286;51.570;7.090;2023-07-22T10:07:45;5.90;;;5.03;;
4547;SDS011;2286;51.570;7.090;2023-07-22T10:10:15;5.50;;;4.27;;
4547;SDS011;2286;51.570;7.090;2023-07-22T10:12:44;5.47;;;4.97;;
4547;SDS011;2286;51.570;7.090;2023-07-22T10:15:13;5.00;;;4.70;;
4547;SDS011;2286;51.570;7.090;2023-07-22T10:17:43;6.23;;;4.83;;
4547;SDS011;2286;51.570;7.090;2023-07-22T10:20:12;5.93;;;5.27;;
4547;SDS011;2286;51.570;7.090;2023-07-22T10:22:41;6.83;;;4.40;;
4547;SDS011;2286;51.570;7.090;2023-07-22T10:25:10;5.30;;;4.70;;
4547;SDS011;2286;51.570;7.090;2023-07-22T10:27:39;6.20;;;5.00;;
4547;SDS011;2286;51.570;7.090;2023-07-22T10:30:09;6.90;;;4.37;;
4547;SDS011;2286;51.570;7.090;2023-07-22T10:32:37;6.90;;;5.20;;
4547;SDS011;2286;51.570;7.090;2023-07-22T10:35:07;4.00;;;3.57;;
4547;SDS011;2286;51.570;7.090;2023-07-22T10:37:37;6.10;;;3.80;;
4547;SDS011;2286;51.570;7.090;2023-07-22T10:40:19;4.70;;;3.93;;
4547;SDS011;2286;51.570;7.090;2023-07-22T10:42:53;4.27;;;3.70;;
4547;SDS011;2286;51.570;7.090;2023-07-22T10:45:29;4.40;;;3.47;;
4547;SDS011;2286;51.570;7.090;2023-07-22T10:48:00;4.70;;;4.20;;
4547;SDS011;2286;51.570;7.090;2023-07-22T10:50:39;6.30;;;3.60;;
4547;SDS011;2286;51.570;7.090;2023-07-22T10:53:10;4.23;;;3.80;;
4547;SDS011;2286;51.570;7.090;2023-07-22T10:58:59;5.30;;;4.20;;
4547;SDS011;2286;51.570;7.090;2023-07-22T11:01:36;7.43;;;3.30;;
4547;SDS011;2286;51.570;7.090;2023-07-22T11:04:14;5.70;;;4.03;;
4547;SDS011;2286;51.570;7.090;2023-07-22T11:06:53;4.47;;;3.60;;
4547;SDS011;2286;51.570;7.090;2023-07-22T11:09:37;6.43;;;4.00;;
4547;SDS011;2286;51.570;7.090;2023-07-22T11:12:07;4.67;;;4.27;;
4547;SDS011;2286;51.570;7.090;2023-07-22T11:14:37;5.47;;;4.23;;
4547;SDS011;2286;51.570;7.090;2023-07-22T11:17:07;4.20;;;3.73;;
4547;SDS011;2286;51.570;7.090;2023-07-22T11:19:36;4.17;;;3.30;;
4547;SDS011;2286;51.570;7.090;2023-07-22T11:22:03;3.87;;;3.57;;
4547;SDS011;2286;51.570;7.090;2023-07-22T11:24:32;4.43;;;3.33;;
4547;SDS011;2286;51.570;7.090;2023-07-22T11:27:01;4.53;;;3.50;;
4547;SDS011;2286;51.570;7.090;2023-07-22T11:29:29;3.67;;;3.20;;
4547;SDS011;2286;51.570;7.090;2023-07-22T11:31:57;4.30;;;3.00;;
4547;SDS011;2286;51.570;7.090;2023-07-22T11:34:25;3.60;;;3.17;;
4547;SDS011;2286;51.570;7.090;2023-07-22T11:36:53;2.70;;;2.50;;
4547;SDS011;2286;51.570;7.090;2023-07-22T11:39:21;3.40;;;2.90;;
4547;SDS011;2286;51.570;7.090;2023-07-22T11:41:50;2.70;;;2.50;;
4547;SDS011;2286;51.570;7.090;2023-07-22T11:44:18;3.30;;;2.73;;
4547;SDS011;2286;51.570;7.090;2023-07-22T11:46:47;6.90;;;3.47;;
4547;SDS011;2286;51.570;7.090;2023-07-22T11:49:21;3.87;;;2.90;;
4547;SDS011;2286;51.570;7.090;2023-07-22T11:51:54;4.60;;;3.00;;
4547;SDS011;2286;51.570;7.090;2023-07-22T11:54:22;3.10;;;2.77;;
4547;SDS011;2286;51.570;7.090;2023-07-22T11:56:50;3.20;;;2.50;;
4547;SDS011;2286;51.570;7.090;2023-07-22T11:59:17;2.83;;;2.60;;
4547;SDS011;2286;51.570;7.090;2023-07-22T12:01:59;2.83;;;2.30;;
4547;SDS011;2286;51.570;7.090;2023-07-22T12:04:28;4.53;;;2.60;;
4547;SDS011;2286;51.570;7.090;2023-07-22T12:06:55;5.20;;;2.60;;
4547;SDS011;2286;51.570;7.090;2023-07-22T12:09:22;2.40;;;2.20;;
4547;SDS011;2286;51.570;7.090;2023-07-22T12:11:54;3.00;;;2.40;;
4547;SDS011;2286;51.570;7.090;2023-07-22T12:14:22;2.43;;;2.23;;
4547;SDS011;2286;51.570;7.090;2023-07-22T12:16:52;2.80;;;2.60;;
4547;SDS011;2286;51.570;7.090;2023-07-22T12:19:23;3.40;;;2.50;;
4547;SDS011;2286;51.570;7.090;2023-07-22T12:21:51;3.63;;;3.10;;
4547;SDS011;2286;51.570;7.090;2023-07-22T12:24:18;2.50;;;2.30;;
4547;SDS011;2286;51.570;7.090;2023-07-22T12:26:45;2.77;;;2.57;;
4547;SDS011;2286;51.570;7.090;2023-07-22T12:29:13;2.50;;;2.30;;
4547;SDS011;2286;51.570;7.090;2023-07-22T12:31:40;4.73;;;2.60;;
4547;SDS011;2286;51.570;7.090;2023-07-22T12:34:07;6.27;;;2.40;;
4547;SDS011;2286;51.570;7.090;2023-07-22T12:36:34;5.40;;;2.90;;
4547;SDS011;2286;51.570;7.090;2023-07-22T12:39:02;3.43;;;2.27;;
4547;SDS011;2286;51.570;7.090;2023-07-22T12:41:30;2.97;;;2.50;;
4547;SDS011;2286;51.570;7.090;2023-07-22T12:43:57;2.27;;;2.17;;
4547;SDS011;2286;51.570;7.090;2023-07-22T12:46:24;3.07;;;2.77;;
4547;SDS011;2286;51.570;7.090;2023-07-22T12:48:51;2.27;;;2.10;;
4547;SDS011;2286;51.570;7.090;2023-07-22T12:51:18;2.37;;;2.17;;
4547;SDS011;2286;51.570;7.090;2023-07-22T12:53:46;2.80;;;2.03;;
4547;SDS011;2286;51.570;7.090;2023-07-22T12:56:14;2.87;;;1.93;;
4547;SDS011;2286;51.570;7.090;2023-07-22T12:58:40;4.83;;;2.03;;
4547;SDS011;2286;51.570;7.090;2023-07-22T13:01:07;3.40;;;2.10;;
4547;SDS011;2286;51.570;7.090;2023-07-22T13:03:34;2.73;;;1.90;;
4547;SDS011;2286;51.570;7.090;2023-07-22T13:06:02;3.97;;;2.10;;
4547;SDS011;2286;51.570;7.090;2023-07-22T13:08:29;2.37;;;2.17;;
4547;SDS011;2286;51.570;7.090;2023-07-22T13:10:56;3.80;;;2.10;;
4547;SDS011;2286;51.570;7.090;2023-07-22T13:13:24;2.37;;;2.17;;
4547;SDS011;2286;51.570;7.090;2023-07-22T13:15:51;2.30;;;2.10;;
4547;SDS011;2286;51.570;7.090;2023-07-22T13:18:18;3.73;;;2.80;;
4547;SDS011;2286;51.570;7.090;2023-07-22T13:20:46;2.60;;;2.20;;
4547;SDS011;2286;51.570;7.090;2023-07-22T13:23:13;2.10;;;2.00;;
4547;SDS011;2286;51.570;7.090;2023-07-22T13:25:40;5.63;;;2.87;;
4547;SDS011;2286;51.570;7.090;2023-07-22T13:28:07;2.67;;;2.47;;
4547;SDS011;2286;51.570;7.090;2023-07-22T13:30:35;3.10;;;2.90;;
4547;SDS011;2286;51.570;7.090;2023-07-22T13:33:02;3.37;;;3.07;;
4547;SDS011;2286;51.570;7.090;2023-07-22T13:35:29;3.60;;;3.30;;
4547;SDS011;2286;51.570;7.090;2023-07-22T13:37:57;4.17;;;2.93;;
4547;SDS011;2286;51.570;7.090;2023-07-22T13:40:24;11.93;;;3.87;;
4547;SDS011;2286;51.570;7.090;2023-07-22T13:42:51;3.10;;;2.80;;
4547;SDS011;2286;51.570;7.090;2023-07-22T13:45:18;4.97;;;2.57;;
4547;SDS011;2286;51.570;7.090;2023-07-22T13:47:47;3.00;;;2.80;;
4547;SDS011;2286;51.570;7.090;2023-07-22T13:50:14;2.87;;;2.67;;
4547;SDS011;2286;51.570;7.090;2023-07-22T13:52:41;5.03;;;3.40;;
4547;SDS011;2286;51.570;7.090;2023-07-22T13:55:09;2.77;;;2.50;;
4547;SDS011;2286;51.570;7.090;2023-07-22T13:57:36;3.00;;;2.80;;
4547;SDS011;2286;51.570;7.090;2023-07-22T14:00:04;3.50;;;2.60;;
4547;SDS011;2286;51.570;7.090;2023-07-22T14:02:33;3.00;;;2.40;;
4547;SDS011;2286;51.570;7.090;2023-07-22T14:05:02;5.20;;;2.90;;
4547;SDS011;2286;51.570;7.090;2023-07-22T14:07:30;3.63;;;2.60;;
4547;SDS011;2286;51.570;7.090;2023-07-22T14:09:57;5.07;;;3.17;;
4547;SDS011;2286;51.570;7.090;2023-07-22T14:12:24;3.63;;;3.30;;
4547;SDS011;2286;51.570;7.090;2023-07-22T14:14:51;4.10;;;3.23;;
4547;SDS011;2286;51.570;7.090;2023-07-22T14:17:18;2.60;;;2.40;;
4547;SDS011;2286;51.570;7.090;2023-07-22T14:19:45;4.00;;;2.97;;
4547;SDS011;2286;51.570;7.090;2023-07-22T14:22:14;2.70;;;2.50;;
4547;SDS011;2286;51.570;7.090;2023-07-22T14:24:41;4.73;;;2.60;;
4547;SDS011;2286;51.570;7.090;2023-07-22T14:27:08;3.53;;;2.40;;
4547;SDS011;2286;51.570;7.090;2023-07-22T14:29:35;7.97;;;2.83;;
4547;SDS011;2286;51.570;7.090;2023-07-22T14:32:02;3.23;;;2.37;;
4547;SDS011;2286;51.570;7.090;2023-07-22T14:34:30;2.73;;;2.50;;
4547;SDS011;2286;51.570;7.090;2023-07-22T14:36:57;2.80;;;2.60;;
4547;SDS011;2286;51.570;7.090;2023-07-22T14:39:26;2.93;;;2.60;;
4547;SDS011;2286;51.570;7.090;2023-07-22T14:41:53;2.53;;;2.33;;
4547;SDS011;2286;51.570;7.090;2023-07-22T14:44:21;2.80;;;2.60;;
4547;SDS011;2286;51.570;7.090;2023-07-22T14:46:48;5.30;;;2.70;;
4547;SDS011;2286;51.570;7.090;2023-07-22T14:49:15;2.67;;;2.50;;
4547;SDS011;2286;51.570;7.090;2023-07-22T14:51:42;3.67;;;2.50;;
4547;SDS011;2286;51.570;7.090;2023-07-22T14:54:09;4.43;;;3.07;;
4547;SDS011;2286;51.570;7.090;2023-07-22T14:56:38;3.07;;;2.87;;
4547;SDS011;2286;51.570;7.090;2023-07-22T14:59:05;3.87;;;2.67;;
4547;SDS011;2286;51.570;7.090;2023-07-22T15:01:36;7.93;;;2.83;;
4547;SDS011;2286;51.570;7.090;2023-07-22T15:04:04;3.10;;;2.90;;
4547;SDS011;2286;51.570;7.090;2023-07-22T15:06:31;2.83;;;2.50;;
4547;SDS011;2286;51.570;7.090;2023-07-22T15:09:00;3.30;;;3.00;;
4547;SDS011;2286;51.570;7.090;2023-07-22T15:11:27;2.63;;;2.43;;
4547;SDS011;2286;51.570;7.090;2023-07-22T15:13:56;2.90;;;2.70;;
4547;SDS011;2286;51.570;7.090;2023-07-22T15:16:23;2.87;;;2.67;;
4547;SDS011;2286;51.570;7.090;2023-07-22T15:18:50;2.97;;;2.50;;
4547;SDS011;2286;51.570;7.090;2023-07-22T15:21:17;2.90;;;2.70;;